createdAt,value
2022-09-30T00:00:51.882Z,8.70
2022-09-30T00:03:38.119Z,8.50
2022-09-30T00:06:25.250Z,8.40
2022-09-30T00:09:12.983Z,8.50
2022-09-30T00:12:01.275Z,8.70
2022-09-30T00:14:47.576Z,8.70
2022-09-30T00:17:34.078Z,8.80
2022-09-30T00:20:20.351Z,9.00
2022-09-30T00:23:07.150Z,9.00
2022-09-30T00:25:59.757Z,9.00
2022-09-30T00:28:50.709Z,9.20
2022-09-30T00:31:37.845Z,9.30
2022-09-30T00:34:24.381Z,9.40
2022-09-30T00:37:14.967Z,9.40
2022-09-30T00:40:01.511Z,9.40
2022-09-30T00:42:48.235Z,9.40
2022-09-30T00:45:35.886Z,9.50
2022-09-30T00:48:26.705Z,9.50
2022-09-30T00:51:12.961Z,9.40
2022-09-30T00:54:03.056Z,9.40
2022-09-30T00:56:53.557Z,9.40
2022-09-30T00:59:45.177Z,9.40
2022-09-30T01:02:33.494Z,9.50
2022-09-30T01:05:20.250Z,9.60
2022-09-30T01:08:09.779Z,9.60
2022-09-30T01:10:56.178Z,9.50
2022-09-30T01:13:45.621Z,9.60
2022-09-30T01:16:54.031Z,9.60
2022-09-30T01:20:12.697Z,9.40
2022-09-30T01:23:16.904Z,9.50
2022-09-30T01:26:24.936Z,9.50
2022-09-30T01:29:44.459Z,9.50
2022-09-30T01:32:46.928Z,9.40
2022-09-30T01:35:46.662Z,9.30
2022-09-30T01:38:45.430Z,9.20
2022-09-30T01:41:43.372Z,9.20
2022-09-30T01:44:36.147Z,9.00
2022-09-30T01:47:26.831Z,8.90
2022-09-30T01:50:20.975Z,8.90
2022-09-30T01:53:12.963Z,8.90
2022-09-30T01:56:04.991Z,8.90
2022-09-30T01:58:55.251Z,8.90
2022-09-30T02:01:48.869Z,8.90
2022-09-30T02:04:37.219Z,9.00
2022-09-30T02:07:30.801Z,9.00
2022-09-30T02:10:21.685Z,9.10
2022-09-30T02:13:13.614Z,9.20
2022-09-30T02:16:12.712Z,9.30
2022-09-30T02:19:05.787Z,9.30
2022-09-30T02:21:56.979Z,9.10
2022-09-30T02:24:48.707Z,9.20
2022-09-30T02:27:41.541Z,9.30
2022-09-30T02:30:28.462Z,9.20
2022-09-30T02:33:20.803Z,9.20
2022-09-30T02:36:11.356Z,9.30
2022-09-30T02:39:03.597Z,9.40
2022-09-30T02:41:58.567Z,9.40
2022-09-30T02:44:44.997Z,9.50
2022-09-30T02:47:38.030Z,9.50
2022-09-30T02:50:32.816Z,9.70
2022-09-30T02:53:26.113Z,9.70
2022-09-30T02:56:24.584Z,9.70
2022-09-30T02:59:12.729Z,9.70
2022-09-30T03:01:59.667Z,9.80
2022-09-30T03:04:48.633Z,9.80
2022-09-30T03:07:36.036Z,9.80
2022-09-30T03:10:22.411Z,9.90
2022-09-30T03:13:24.631Z,9.60
2022-09-30T03:16:22.758Z,9.60
2022-09-30T03:19:29.053Z,9.70
2022-09-30T03:22:33.968Z,9.50
2022-09-30T03:25:30.619Z,9.50
2022-09-30T03:28:26.175Z,9.40
2022-09-30T03:31:23.178Z,9.20
2022-09-30T03:34:18.455Z,9.00
2022-09-30T03:37:15.027Z,9.00
2022-09-30T03:40:05.999Z,9.00
2022-09-30T03:42:57.163Z,9.00
2022-09-30T03:45:52.181Z,8.90
2022-09-30T03:48:42.160Z,8.80
2022-09-30T03:51:30.528Z,8.80
2022-09-30T03:54:16.944Z,8.70
2022-09-30T03:57:05.241Z,8.80
2022-09-30T03:59:52.089Z,8.80
2022-09-30T04:02:38.997Z,8.70
2022-09-30T04:05:26.894Z,8.70
2022-09-30T04:08:13.370Z,8.70
2022-09-30T04:10:59.543Z,8.80
2022-09-30T04:13:46.011Z,8.80
2022-09-30T04:16:32.925Z,9.10
2022-09-30T04:19:19.652Z,9.20
2022-09-30T04:22:08.305Z,9.30
2022-09-30T04:24:54.523Z,9.50
2022-09-30T04:27:40.745Z,9.60
2022-09-30T04:30:31.300Z,9.70
2022-09-30T04:33:19.716Z,9.60
2022-09-30T04:36:07.489Z,9.70
2022-09-30T04:38:55.535Z,9.80
2022-09-30T04:41:41.886Z,9.70
2022-09-30T04:44:28.323Z,9.50
2022-09-30T04:47:15.005Z,9.60
2022-09-30T04:50:01.452Z,9.70
2022-09-30T04:52:48.471Z,9.60
2022-09-30T04:55:36.490Z,9.80
2022-09-30T04:58:24.449Z,9.90
2022-09-30T05:01:12.809Z,9.90
2022-09-30T05:03:59.682Z,10.10
2022-09-30T05:06:46.005Z,10.10
2022-09-30T05:09:32.570Z,10.00
2022-09-30T05:12:20.788Z,10.00
2022-09-30T05:15:08.110Z,9.90
2022-09-30T05:17:54.704Z,9.90
2022-09-30T05:20:41.472Z,9.90
2022-09-30T05:23:30.317Z,10.00
2022-09-30T05:26:17.050Z,10.20
2022-09-30T05:29:05.047Z,10.30
2022-09-30T05:31:51.687Z,10.10
2022-09-30T05:34:38.980Z,10.20
2022-09-30T05:37:25.480Z,10.10
2022-09-30T05:40:12.318Z,10.10
2022-09-30T05:42:59.220Z,10.10
2022-09-30T05:45:55.044Z,10.10
2022-09-30T05:48:41.718Z,10.10
2022-09-30T05:51:28.003Z,10.20
2022-09-30T05:54:14.532Z,10.20
2022-09-30T05:57:01.397Z,10.00
2022-09-30T05:59:48.257Z,9.70
2022-09-30T06:02:38.468Z,9.70
2022-09-30T06:05:25.524Z,9.80
2022-09-30T06:08:12.773Z,9.70
2022-09-30T06:11:00.104Z,9.70
2022-09-30T06:13:48.708Z,9.80
2022-09-30T06:16:35.228Z,9.70
2022-09-30T06:19:23.452Z,9.60
2022-09-30T06:22:10.085Z,9.50
2022-09-30T06:24:56.835Z,9.70
2022-09-30T06:27:46.375Z,9.90
2022-09-30T06:30:35.207Z,9.90
2022-09-30T06:33:23.241Z,10.00
2022-09-30T06:36:11.402Z,10.10
2022-09-30T06:38:57.993Z,10.20
2022-09-30T06:41:44.329Z,10.40
2022-09-30T06:44:50.572Z,10.50
2022-09-30T06:47:41.737Z,10.60
2022-09-30T06:50:31.755Z,10.70
2022-09-30T06:53:19.618Z,10.90
2022-09-30T06:56:06.533Z,10.90
2022-09-30T06:58:53.610Z,11.00
2022-09-30T07:01:40.040Z,10.90
2022-09-30T07:04:26.430Z,11.00
2022-09-30T07:07:13.014Z,11.00
2022-09-30T07:10:00.776Z,11.10
2022-09-30T07:12:50.850Z,11.10
2022-09-30T07:15:37.385Z,11.20
2022-09-30T07:18:24.729Z,11.20
2022-09-30T07:21:12.502Z,11.00
2022-09-30T07:24:00.172Z,11.00
2022-09-30T07:26:48.047Z,11.00
2022-09-30T07:29:56.562Z,11.10
2022-09-30T07:32:41.479Z,11.20
2022-09-30T07:35:28.292Z,11.10
2022-09-30T07:38:17.097Z,11.20
2022-09-30T07:41:07.748Z,11.40
2022-09-30T07:43:58.659Z,11.20
2022-09-30T07:46:45.968Z,11.20
2022-09-30T07:49:32.721Z,11.50
2022-09-30T07:52:19.332Z,11.80
2022-09-30T07:55:06.391Z,12.00
2022-09-30T07:57:52.622Z,12.50
2022-09-30T08:00:42.849Z,13.20
2022-09-30T08:03:30.064Z,14.20
2022-09-30T08:06:19.687Z,14.90
2022-09-30T08:09:06.898Z,15.20
2022-09-30T08:11:53.537Z,15.10
2022-09-30T08:14:40.297Z,14.90
2022-09-30T08:17:28.483Z,15.20
2022-09-30T08:20:18.787Z,14.60
2022-09-30T08:23:08.182Z,14.30
2022-09-30T08:26:00.908Z,14.10
2022-09-30T08:28:48.325Z,14.10
2022-09-30T08:31:35.104Z,14.60
2022-09-30T08:34:23.491Z,14.70
2022-09-30T08:37:10.989Z,14.50
2022-09-30T08:39:57.348Z,14.60
2022-09-30T08:42:57.625Z,14.80
2022-09-30T08:45:53.424Z,14.80
2022-09-30T08:48:52.168Z,14.70
2022-09-30T08:51:46.012Z,14.70
2022-09-30T08:54:40.043Z,14.50
2022-09-30T08:57:37.095Z,14.20
2022-09-30T09:00:24.901Z,14.00
2022-09-30T09:03:14.180Z,14.00
2022-09-30T09:06:15.416Z,14.10
2022-09-30T09:09:21.974Z,14.10
2022-09-30T09:12:22.545Z,14.00
2022-09-30T09:15:25.540Z,14.00
2022-09-30T09:18:33.845Z,13.90
2022-09-30T09:21:28.966Z,13.80
2022-09-30T09:24:19.860Z,13.80
2022-09-30T09:27:24.546Z,13.90
2022-09-30T09:30:13.909Z,13.90
2022-09-30T09:33:11.803Z,13.90
2022-09-30T09:36:16.363Z,14.00
2022-09-30T09:39:15.803Z,14.10
2022-09-30T09:42:12.133Z,14.30
2022-09-30T09:45:03.678Z,14.60
2022-09-30T09:47:52.278Z,15.30
2022-09-30T09:50:47.079Z,15.90
2022-09-30T09:53:46.201Z,16.00
2022-09-30T09:56:34.508Z,16.20
2022-09-30T09:59:23.012Z,16.20
2022-09-30T10:02:25.065Z,16.60
2022-09-30T10:05:26.140Z,16.50
2022-09-30T10:08:17.023Z,16.50
2022-09-30T10:11:05.755Z,15.90
2022-09-30T10:13:58.179Z,16.50
2022-09-30T10:16:46.042Z,17.10
2022-09-30T10:19:35.432Z,17.10
2022-09-30T10:22:26.585Z,17.10
2022-09-30T10:25:28.017Z,16.80
2022-09-30T10:28:24.356Z,17.20
2022-09-30T10:31:14.450Z,16.90
2022-09-30T10:34:10.989Z,17.30
2022-09-30T10:36:58.430Z,17.60
2022-09-30T10:39:50.429Z,17.80
2022-09-30T10:42:41.785Z,18.00
2022-09-30T10:45:36.529Z,18.20
2022-09-30T10:48:26.163Z,18.20
2022-09-30T10:51:26.220Z,18.30
2022-09-30T10:54:37.247Z,18.30
2022-09-30T10:57:26.823Z,18.50
2022-09-30T11:00:18.806Z,18.60
2022-09-30T11:03:11.928Z,18.80
2022-09-30T11:06:01.130Z,18.90
2022-09-30T11:08:56.800Z,19.10
2022-09-30T11:11:51.214Z,19.30
2022-09-30T11:14:43.234Z,19.40
2022-09-30T11:17:34.896Z,19.40
2022-09-30T11:20:26.123Z,19.40
2022-09-30T11:23:21.076Z,19.40
2022-09-30T11:26:18.321Z,19.40
2022-09-30T11:29:27.855Z,19.10
2022-09-30T11:32:26.944Z,19.00
2022-09-30T11:35:31.206Z,18.70
2022-09-30T11:38:37.355Z,18.50
2022-09-30T11:41:31.144Z,18.90
2022-09-30T11:44:23.289Z,18.70
2022-09-30T11:47:34.734Z,17.90
2022-09-30T11:50:31.519Z,17.50
2022-09-30T11:53:26.747Z,17.60
2022-09-30T11:56:36.995Z,17.80
2022-09-30T11:59:28.616Z,17.90
2022-09-30T12:02:27.227Z,18.00
2022-09-30T12:05:19.631Z,18.80
2022-09-30T12:08:13.542Z,18.90
2022-09-30T12:11:01.228Z,18.80
2022-09-30T12:13:53.147Z,18.70
2022-09-30T12:16:40.668Z,18.40
2022-09-30T12:19:31.951Z,18.50
2022-09-30T12:22:23.720Z,19.00
2022-09-30T12:25:15.809Z,19.70
2022-09-30T12:28:28.128Z,19.40
2022-09-30T12:31:41.651Z,19.00
2022-09-30T12:34:45.945Z,18.60
2022-09-30T12:37:46.916Z,18.00
2022-09-30T12:40:52.560Z,18.00
2022-09-30T12:44:06.835Z,18.50
2022-09-30T12:47:10.875Z,18.70
2022-09-30T12:49:58.238Z,18.90
2022-09-30T12:52:45.649Z,18.70
2022-09-30T12:55:39.600Z,18.40
2022-09-30T12:58:30.898Z,18.30
2022-09-30T13:01:23.213Z,18.30
2022-09-30T13:04:31.809Z,18.30
2022-09-30T13:07:22.006Z,18.70
2022-09-30T13:10:28.693Z,18.90
2022-09-30T13:13:24.557Z,18.80
2022-09-30T13:16:11.210Z,18.50
2022-09-30T13:19:02.643Z,18.30
2022-09-30T13:21:52.090Z,18.00
2022-09-30T13:25:12.109Z,18.10
2022-09-30T13:28:30.395Z,18.10
2022-09-30T13:31:20.041Z,18.10
2022-09-30T13:34:11.713Z,18.20
2022-09-30T13:37:01.689Z,18.10
2022-09-30T13:39:52.909Z,18.00
2022-09-30T13:42:46.020Z,17.90
2022-09-30T13:45:39.433Z,17.80
2022-09-30T13:48:31.311Z,17.80
2022-09-30T13:51:19.781Z,17.80
2022-09-30T13:54:13.481Z,17.60
2022-09-30T13:57:01.812Z,17.40
2022-09-30T13:59:56.651Z,17.30
2022-09-30T14:03:10.478Z,17.30
2022-09-30T14:06:08.465Z,17.40
2022-09-30T14:09:22.647Z,17.40
2022-09-30T14:12:24.412Z,17.50
2022-09-30T14:15:55.667Z,17.60
2022-09-30T14:19:09.626Z,17.60
2022-09-30T14:21:58.526Z,17.40
2022-09-30T14:24:46.536Z,17.40
2022-09-30T14:27:54.578Z,17.30
2022-09-30T14:30:45.261Z,17.30
2022-09-30T14:33:34.960Z,17.30
2022-09-30T14:36:23.779Z,17.20
2022-09-30T14:39:17.432Z,17.10
2022-09-30T14:42:06.373Z,17.10
2022-09-30T14:44:55.253Z,17.10
2022-09-30T14:47:48.171Z,17.10
2022-09-30T14:50:41.825Z,17.10
2022-09-30T14:53:30.545Z,17.20
2022-09-30T14:56:21.945Z,17.10
2022-09-30T14:59:18.825Z,17.10
2022-09-30T15:02:15.964Z,17.20
2022-09-30T15:05:05.074Z,17.00
2022-09-30T15:07:51.727Z,17.00
2022-09-30T15:10:38.297Z,17.10
2022-09-30T15:13:27.726Z,17.10
2022-09-30T15:16:26.715Z,17.10
2022-09-30T15:19:20.002Z,17.00
2022-09-30T15:22:09.372Z,16.90
2022-09-30T15:24:58.026Z,16.90
2022-09-30T15:27:45.182Z,16.70
2022-09-30T15:30:33.050Z,16.60
2022-09-30T15:33:24.702Z,16.60
2022-09-30T15:36:17.040Z,16.50
2022-09-30T15:39:05.413Z,16.60
2022-09-30T15:41:53.117Z,16.60
2022-09-30T15:44:40.401Z,16.50
2022-09-30T15:47:28.851Z,16.50
2022-09-30T15:50:38.562Z,16.50
2022-09-30T15:53:27.073Z,16.50
2022-09-30T15:56:18.245Z,16.60
2022-09-30T15:59:07.687Z,16.70
2022-09-30T16:01:58.075Z,16.70
2022-09-30T16:04:44.607Z,16.60
2022-09-30T16:07:33.246Z,16.40
2022-09-30T16:10:21.250Z,16.30
2022-09-30T16:13:10.289Z,16.20
2022-09-30T16:15:59.110Z,16.00
2022-09-30T16:18:46.265Z,16.10
2022-09-30T16:21:44.741Z,16.10
2022-09-30T16:24:50.988Z,16.00
2022-09-30T16:27:38.590Z,16.00
2022-09-30T16:30:25.712Z,16.00
2022-09-30T16:33:14.265Z,15.90
2022-09-30T16:36:01.048Z,15.90
2022-09-30T16:38:47.354Z,15.90
2022-09-30T16:41:35.001Z,15.80
2022-09-30T16:44:23.061Z,15.70
2022-09-30T16:47:13.131Z,15.70
2022-09-30T16:49:59.601Z,15.70
2022-09-30T16:52:45.989Z,15.60
2022-09-30T16:55:33.088Z,15.50
2022-09-30T16:58:21.060Z,15.40
2022-09-30T17:01:13.066Z,15.10
2022-09-30T17:03:59.762Z,15.00
2022-09-30T17:06:46.048Z,14.80
2022-09-30T17:09:32.467Z,14.70
2022-09-30T17:12:18.940Z,14.50
2022-09-30T17:15:07.948Z,14.30
2022-09-30T17:17:54.418Z,14.20
2022-09-30T17:20:44.552Z,13.90
2022-09-30T17:23:31.506Z,13.90
2022-09-30T17:26:18.426Z,13.90
2022-09-30T17:29:21.239Z,14.00
2022-09-30T17:32:13.011Z,14.00
2022-09-30T17:34:59.328Z,14.20
2022-09-30T17:37:47.598Z,14.20
2022-09-30T17:40:51.511Z,14.10
2022-09-30T17:43:38.140Z,14.00
2022-09-30T17:46:25.498Z,13.60
2022-09-30T17:49:21.926Z,13.30
2022-09-30T17:52:13.562Z,13.10
2022-09-30T17:55:00.029Z,13.00
2022-09-30T17:57:46.413Z,12.70
2022-09-30T18:00:33.555Z,12.50
2022-09-30T18:03:20.549Z,12.60
2022-09-30T18:06:08.944Z,12.60
2022-09-30T18:08:56.301Z,12.70
2022-09-30T18:11:44.084Z,12.70
2022-09-30T18:14:35.013Z,12.70
2022-09-30T18:17:21.380Z,12.60
2022-09-30T18:20:08.959Z,12.40
2022-09-30T18:22:56.901Z,12.10
2022-09-30T18:25:43.871Z,12.00
2022-09-30T18:28:30.218Z,11.90
2022-09-30T18:31:26.997Z,11.80
2022-09-30T18:34:14.442Z,11.90
2022-09-30T18:37:04.122Z,11.90
2022-09-30T18:39:52.769Z,12.00
2022-09-30T18:42:39.244Z,12.00
2022-09-30T18:45:25.721Z,11.80
2022-09-30T18:48:12.692Z,12.00
2022-09-30T18:51:03.265Z,12.00
2022-09-30T18:53:55.907Z,12.10
2022-09-30T18:56:44.768Z,12.10
2022-09-30T18:59:31.204Z,12.00
2022-09-30T19:02:18.027Z,12.00
2022-09-30T19:05:04.917Z,12.00
2022-09-30T19:07:52.493Z,12.00
2022-09-30T19:10:42.069Z,11.90
2022-09-30T19:13:30.070Z,11.80
2022-09-30T19:16:18.730Z,11.80
2022-09-30T19:19:05.445Z,11.60
2022-09-30T19:21:52.059Z,11.40
2022-09-30T19:24:38.964Z,11.40
2022-09-30T19:27:27.036Z,11.00
2022-09-30T19:30:15.515Z,10.90
2022-09-30T19:33:01.794Z,10.60
2022-09-30T19:35:51.052Z,10.50
2022-09-30T19:38:40.644Z,10.60
2022-09-30T19:41:28.024Z,10.80
2022-09-30T19:44:19.256Z,11.00
2022-09-30T19:47:07.558Z,11.10
2022-09-30T19:49:54.620Z,11.20
2022-09-30T19:52:52.561Z,11.30
2022-09-30T19:55:49.566Z,11.40
2022-09-30T19:58:37.529Z,11.40
2022-09-30T20:01:28.140Z,11.50
2022-09-30T20:04:18.692Z,11.60
2022-09-30T20:07:05.253Z,11.60
2022-09-30T20:09:52.290Z,11.50
2022-09-30T20:12:38.706Z,11.50
2022-09-30T20:15:46.137Z,11.50
2022-09-30T20:18:33.360Z,11.50
2022-09-30T20:21:20.982Z,11.40
2022-09-30T20:24:08.435Z,11.50
2022-09-30T20:26:54.693Z,11.40
2022-09-30T20:29:41.049Z,11.40
2022-09-30T20:32:30.646Z,11.30
2022-09-30T20:35:17.274Z,11.30
2022-09-30T20:38:06.268Z,11.20
2022-09-30T20:40:56.772Z,11.20
2022-09-30T20:43:43.336Z,11.20
2022-09-30T20:46:31.904Z,11.20
2022-09-30T20:49:18.397Z,11.20
2022-09-30T20:52:06.038Z,11.20
2022-09-30T20:54:54.061Z,11.10
2022-09-30T20:57:41.600Z,11.10
2022-09-30T21:00:28.454Z,11.20
2022-09-30T21:03:15.705Z,11.20
2022-09-30T21:06:02.049Z,11.10
2022-09-30T21:08:50.741Z,11.10
2022-09-30T21:11:42.473Z,11.00
2022-09-30T21:14:29.362Z,10.80
2022-09-30T21:17:15.657Z,10.90
2022-09-30T21:20:02.945Z,10.90
2022-09-30T21:22:49.414Z,10.90
2022-09-30T21:25:35.877Z,10.90
2022-09-30T21:28:23.779Z,10.90
2022-09-30T21:31:17.233Z,10.90
2022-09-30T21:34:04.154Z,10.90
2022-09-30T21:36:50.494Z,10.90
2022-09-30T21:39:36.911Z,10.90
2022-09-30T21:42:23.355Z,10.80
2022-09-30T21:45:12.244Z,10.80
2022-09-30T21:48:02.710Z,10.80
2022-09-30T21:50:49.215Z,10.80
2022-09-30T21:53:35.724Z,10.70
2022-09-30T21:56:23.239Z,10.60
2022-09-30T21:59:09.887Z,10.50
2022-09-30T22:01:58.003Z,10.50
2022-09-30T22:04:44.745Z,10.50
2022-09-30T22:07:32.872Z,10.40
2022-09-30T22:10:19.581Z,10.40
2022-09-30T22:13:05.935Z,10.40
2022-09-30T22:15:52.228Z,10.40
2022-09-30T22:18:40.048Z,10.40
2022-09-30T22:21:27.608Z,10.40
2022-09-30T22:24:14.362Z,10.50
2022-09-30T22:27:01.004Z,10.50
2022-09-30T22:29:48.914Z,10.40
2022-09-30T22:32:35.504Z,10.40
2022-09-30T22:35:40.513Z,10.50
2022-09-30T22:38:27.340Z,10.60
2022-09-30T22:41:13.790Z,10.50
2022-09-30T22:44:00.776Z,10.50
2022-09-30T22:46:47.768Z,10.50
2022-09-30T22:49:34.279Z,10.50
2022-09-30T22:52:21.898Z,10.40
2022-09-30T22:55:08.841Z,10.40
2022-09-30T22:57:55.489Z,10.30
2022-09-30T23:00:41.689Z,10.20
2022-09-30T23:03:28.105Z,10.20
2022-09-30T23:06:15.044Z,10.20
2022-09-30T23:09:05.024Z,10.10
2022-09-30T23:11:54.366Z,10.20
2022-09-30T23:14:40.696Z,10.10
2022-09-30T23:17:27.135Z,10.00
2022-09-30T23:20:13.523Z,10.00
2022-09-30T23:23:00.166Z,10.10
2022-09-30T23:25:48.263Z,10.10
2022-09-30T23:28:36.057Z,10.00
2022-09-30T23:31:22.629Z,10.00
2022-09-30T23:34:09.821Z,10.00
2022-09-30T23:36:56.129Z,10.00
2022-09-30T23:39:42.450Z,9.90
2022-09-30T23:42:31.968Z,9.90
2022-09-30T23:45:18.484Z,9.80
2022-09-30T23:48:05.285Z,9.80
2022-09-30T23:50:53.022Z,9.70
2022-09-30T23:53:39.660Z,9.80
2022-09-30T23:56:26.074Z,9.80
2022-09-30T23:59:14.758Z,9.80
